Terminal Aerodrome Forecast
Issued by NWS

Home | Current Version | Previous Version | Graphics & Text | Print | Product List | Glossary On
Versions: 1 2 3 4 5 6 7 8 9 10 11 12 13 14 15 16 17 18 19 20 21
000
FTUS43 KGRB 041136
TAFCWA
TAF
KCWA 041136Z 0412/0512 VRB03KT P6SM SKC
      TEMPO 0412/0413 5SM BR SCT004
     FM041500 06005KT P6SM SCT004 BKN015
     FM041700 13005KT P6SM SCT020 SCT200
     FM050400 VRB02KT 3SM BR SCT006
      TEMPO 0508/0512 1SM BR BKN006=

USA.gov is the U.S. government's official web portal to all federal, state and local government web resources and services.